Time;durP1;ratioP1;P1;durP2;ratioP2;P2;SDS_P1;SDS_P2;PMS_P1;PMS_P2;Temp;Humidity;BMP_temperature;BMP_pressure;BME280_temperature;BME280_humidity;BME280_pressure;Samples;Min_cycle;Max_cycle;Signal;HPM_P1;HPM_P2
2022/03/29 00:01:16;;;;;;;28.88;18.10;;;;;;;8.95;98.85;101662.34;5012119;28;20029;-51
2022/03/29 00:03:42;;;;;;;34.80;17.42;;;;;;;8.97;99.03;101659.53;5014908;28;20056;-50
2022/03/29 00:06:07;;;;;;;31.65;18.27;;;;;;;8.93;99.33;101655.47;5012180;28;20028;-50
2022/03/29 00:08:32;;;;;;;32.35;18.30;;;;;;;8.92;99.65;101657.25;5006874;28;20333;-50
2022/03/29 00:10:58;;;;;;;32.63;17.92;;;;;;;8.92;99.63;101649.25;5004529;28;20029;-49
2022/03/29 00:13:23;;;;;;;32.92;18.23;;;;;;;8.88;99.96;101655.84;4996936;28;20048;-49
2022/03/29 00:15:49;;;;;;;33.28;18.08;;;;;;;8.86;100.00;101654.28;4992811;28;20022;-50
2022/03/29 00:18:14;;;;;;;31.92;18.35;;;;;;;8.83;100.00;101646.56;5011957;28;20063;-46
2022/03/29 00:20:40;;;;;;;34.63;17.95;;;;;;;8.83;100.00;101649.22;4998693;28;20575;-52
2022/03/29 00:23:05;;;;;;;35.25;18.42;;;;;;;8.77;100.00;101642.56;5001696;28;20538;-51
2022/03/29 00:25:31;;;;;;;32.45;19.10;;;;;;;8.74;100.00;101649.03;5013419;28;20111;-51
2022/03/29 00:27:56;;;;;;;34.70;18.10;;;;;;;8.67;100.00;101647.00;5013227;28;20461;-50
2022/03/29 00:30:22;;;;;;;30.45;18.50;;;;;;;8.65;100.00;101640.97;4996727;28;20068;-50
2022/03/29 00:32:47;;;;;;;32.83;19.00;;;;;;;8.65;100.00;101641.78;4994952;28;20026;-51
2022/03/29 00:35:13;;;;;;;36.95;19.42;;;;;;;8.61;100.00;101634.22;4999643;28;20495;-47
2022/03/29 00:37:39;;;;;;;29.50;18.25;;;;;;;8.56;100.00;101639.91;5012849;28;20045;-51
2022/03/29 00:40:06;;;;;;;40.35;19.58;;;;;;;8.48;100.00;101624.56;5013650;28;20027;-49
2022/03/29 00:42:31;;;;;;;37.97;19.63;;;;;;;8.48;100.00;101626.41;5013817;28;20025;-51
2022/03/29 00:44:57;;;;;;;40.30;19.65;;;;;;;8.46;100.00;101623.84;5010294;28;20099;-51
2022/03/29 00:47:23;;;;;;;33.70;19.85;;;;;;;8.44;100.00;101620.47;4990739;28;20114;-51
2022/03/29 00:49:48;;;;;;;39.63;19.67;;;;;;;8.44;100.00;101607.19;5000060;28;20547;-49
2022/03/29 00:52:14;;;;;;;37.85;20.75;;;;;;;8.42;100.00;101601.09;4994221;28;20370;-49
2022/03/29 00:54:41;;;;;;;32.08;19.95;;;;;;;8.39;100.00;101612.84;4999211;28;20110;-49
2022/03/29 00:57:06;;;;;;;39.38;20.55;;;;;;;8.40;100.00;101603.91;5006736;28;20380;-50
2022/03/29 00:59:32;;;;;;;30.42;19.55;;;;;;;8.40;100.00;101609.22;5012712;28;20021;-49
2022/03/29 01:01:57;;;;;;;34.72;19.67;;;;;;;8.38;100.00;101603.19;5012131;28;20186;-51
2022/03/29 01:04:27;;;;;;;39.50;20.35;;;;;;;8.35;100.00;101599.91;5013324;28;20449;-49
2022/03/29 01:06:54;;;;;;;36.60;20.80;;;;;;;8.30;100.00;101597.66;4994259;28;20029;-50
2022/03/29 01:09:19;;;;;;;33.78;20.02;;;;;;;8.28;100.00;101596.94;4993510;28;20429;-49
2022/03/29 01:11:45;;;;;;;32.97;19.20;;;;;;;8.21;100.00;101591.28;5005598;28;20036;-51
2022/03/29 01:14:11;;;;;;;36.67;19.58;;;;;;;8.18;100.00;101596.00;5013326;28;20031;-50
2022/03/29 01:19:21;;;;;;;30.08;19.50;;;;;;;8.06;100.00;101587.19;5002558;28;20111;-48
2022/03/29 01:22:09;;;;;;;35.35;19.95;;;;;;;8.05;100.00;101585.53;4994024;28;20104;-49
2022/03/29 01:24:36;;;;;;;37.53;20.70;;;;;;;8.01;100.00;101584.94;4993304;28;20300;-48
2022/03/29 01:27:04;;;;;;;34.70;20.92;;;;;;;7.99;100.00;101583.38;4992958;28;20025;-48
2022/03/29 01:29:31;;;;;;;36.97;21.40;;;;;;;7.97;100.00;101578.16;5005544;28;20449;-52
2022/03/29 01:31:57;;;;;;;39.72;22.35;;;;;;;7.96;100.00;101579.16;4997761;28;20097;-51
2022/03/29 01:34:24;;;;;;;38.60;21.83;;;;;;;7.92;100.00;101574.22;5002346;28;20039;-49
2022/03/29 01:36:49;;;;;;;36.22;21.98;;;;;;;7.92;100.00;101580.38;4993547;28;20437;-49
2022/03/29 01:39:15;;;;;;;41.22;23.25;;;;;;;7.90;100.00;101582.31;5005092;28;20029;-50
2022/03/29 01:41:41;;;;;;;43.65;22.58;;;;;;;7.89;100.00;101577.97;5013779;28;20705;-49
2022/03/29 01:44:10;;;;;;;44.47;23.85;;;;;;;7.89;100.00;101577.13;5013818;28;20037;-49
2022/03/29 01:46:37;;;;;;;38.75;22.33;;;;;;;7.84;100.00;101577.47;5012252;28;20303;-51
2022/03/29 01:49:03;;;;;;;41.75;22.98;;;;;;;7.85;100.00;101576.53;5011798;28;20033;-47
2022/03/29 01:51:28;;;;;;;43.45;24.10;;;;;;;7.85;100.00;101577.34;5012753;28;20121;-50
2022/03/29 01:53:55;;;;;;;41.72;23.25;;;;;;;7.85;100.00;101561.41;4997690;28;20192;-48
2022/03/29 01:56:22;;;;;;;40.63;23.48;;;;;;;7.82;100.00;101558.16;4997700;28;20573;-50
2022/03/29 01:58:47;;;;;;;45.35;23.85;;;;;;;7.80;100.00;101550.28;4996005;28;20087;-50
2022/03/29 02:01:12;;;;;;;42.30;23.48;;;;;;;7.81;100.00;101548.50;4995005;28;20073;-51
2022/03/29 02:03:38;;;;;;;42.42;23.27;;;;;;;7.78;100.00;101544.25;4998513;28;20034;-47
2022/03/29 02:06:04;;;;;;;46.88;24.48;;;;;;;7.73;100.00;101540.31;5001436;28;20051;-48
2022/03/29 02:08:29;;;;;;;41.15;23.15;;;;;;;7.66;100.00;101537.28;5000450;28;20456;-49
2022/03/29 02:10:55;;;;;;;41.60;24.40;;;;;;;7.67;100.00;101536.31;5010499;28;20450;-50
2022/03/29 02:13:21;;;;;;;43.72;24.55;;;;;;;7.72;100.00;101535.94;5011820;28;20030;-51
2022/03/29 02:15:46;;;;;;;45.00;25.10;;;;;;;7.66;100.00;101539.97;5013662;28;20065;-51
2022/03/29 02:18:12;;;;;;;51.25;25.25;;;;;;;7.64;100.00;101529.44;5015035;28;20080;-51
2022/03/29 02:20:37;;;;;;;43.83;25.42;;;;;;;7.64;100.00;101525.94;5015427;28;20032;-47
2022/03/29 02:23:07;;;;;;;40.65;23.67;;;;;;;7.64;100.00;101533.94;5005933;28;20096;-49
2022/03/29 02:25:33;;;;;;;43.72;24.85;;;;;;;7.64;100.00;101529.44;4996251;28;20034;-50
2022/03/29 02:27:59;;;;;;;47.20;25.40;;;;;;;7.61;100.00;101528.84;5003845;28;20103;-49
2022/03/29 02:30:25;;;;;;;44.50;24.63;;;;;;;7.61;100.00;101527.03;5009698;28;20071;-50
2022/03/29 02:32:50;;;;;;;44.30;24.85;;;;;;;7.61;100.00;101520.88;5015197;28;20112;-49
2022/03/29 02:35:16;;;;;;;47.65;26.33;;;;;;;7.57;100.00;101519.41;5014008;28;20045;-50
2022/03/29 02:37:42;;;;;;;43.85;25.40;;;;;;;7.52;100.00;101514.50;5011626;28;20405;-51
2022/03/29 02:40:09;;;;;;;48.88;25.75;;;;;;;7.52;100.00;101513.63;5007023;28;20029;-48
2022/03/29 02:42:48;;;;;;;47.20;25.83;;;;;;;7.54;100.00;101512.56;5012401;28;20506;-50
2022/03/29 02:45:15;;;;;;;46.63;25.48;;;;;;;7.55;100.00;101497.44;5012633;28;20040;-48
2022/03/29 02:47:42;;;;;;;45.78;24.92;;;;;;;7.55;100.00;101500.97;5004082;28;20072;-50
2022/03/29 02:50:08;;;;;;;45.95;24.52;;;;;;;7.53;100.00;101486.94;4998310;28;20484;-48
2022/03/29 02:52:33;;;;;;;48.03;26.75;;;;;;;7.54;100.00;101487.81;4994731;28;20057;-48
2022/03/29 02:54:58;;;;;;;48.50;25.85;;;;;;;7.53;100.00;101497.56;4994132;28;20113;-48
2022/03/29 02:57:23;;;;;;;44.72;25.90;;;;;;;7.51;100.00;101488.03;4995193;28;20022;-50
2022/03/29 02:59:49;;;;;;;44.25;25.67;;;;;;;7.46;100.00;101489.25;5003495;28;20022;-47
2022/03/29 03:02:14;;;;;;;44.92;25.55;;;;;;;7.47;100.00;101485.63;4997281;28;21015;-47
2022/03/29 03:04:39;;;;;;;44.75;25.77;;;;;;;7.41;100.00;101479.97;5009691;28;20038;-50
2022/03/29 03:07:05;;;;;;;47.58;25.70;;;;;;;7.36;100.00;101480.34;4993161;28;20030;-47
2022/03/29 03:09:30;;;;;;;45.33;26.25;;;;;;;7.32;100.00;101478.06;4999932;28;20040;-51
2022/03/29 03:11:56;;;;;;;51.67;25.65;;;;;;;7.29;100.00;101468.53;5014576;28;20022;-50
2022/03/29 03:14:21;;;;;;;46.17;26.15;;;;;;;7.27;100.00;101473.13;5008514;28;20133;-51
2022/03/29 03:16:46;;;;;;;48.78;26.80;;;;;;;7.24;100.00;101468.06;4994085;28;20078;-48
2022/03/29 03:19:12;;;;;;;47.92;25.92;;;;;;;7.19;100.00;101465.75;4994530;28;20036;-48
2022/03/29 03:21:37;;;;;;;51.78;27.35;;;;;;;7.16;100.00;101463.38;4995010;28;20026;-51
2022/03/29 03:24:03;;;;;;;47.53;26.45;;;;;;;7.13;100.00;101462.75;4993503;28;20021;-51
2022/03/29 03:26:28;;;;;;;47.38;26.52;;;;;;;7.12;100.00;101461.91;4993892;28;20440;-50
2022/03/29 03:28:53;;;;;;;54.20;27.05;;;;;;;7.08;100.00;101463.97;4995959;28;20026;-47
2022/03/29 03:31:19;;;;;;;47.10;26.77;;;;;;;7.04;100.00;101454.56;4998573;28;20025;-47
2022/03/29 03:33:44;;;;;;;47.92;27.77;;;;;;;7.04;100.00;101462.53;5001014;28;20416;-52
2022/03/29 03:36:09;;;;;;;47.45;26.38;;;;;;;7.02;100.00;101460.97;4996366;28;20058;-47
2022/03/29 03:38:34;;;;;;;50.75;26.67;;;;;;;7.03;100.00;101457.34;4993624;28;20523;-48
2022/03/29 03:41:00;;;;;;;50.67;27.15;;;;;;;6.98;100.00;101462.19;4996722;28;20354;-48
2022/03/29 03:43:25;;;;;;;49.33;27.90;;;;;;;6.99;100.00;101466.50;5005004;28;20017;-51
2022/03/29 03:45:50;;;;;;;50.95;27.73;;;;;;;6.98;100.00;101460.38;4993314;28;20580;-51
2022/03/29 03:48:16;;;;;;;53.17;28.30;;;;;;;6.98;100.00;101464.84;4994694;28;20056;-51
2022/03/29 03:50:41;;;;;;;54.15;27.27;;;;;;;6.97;100.00;101457.84;4992887;28;20053;-51
2022/03/29 03:53:07;;;;;;;54.03;28.98;;;;;;;6.98;100.00;101456.88;4993567;28;20464;-47
2022/03/29 03:55:32;;;;;;;51.88;28.80;;;;;;;7.00;100.00;101453.13;4993643;28;20328;-49
2022/03/29 03:57:57;;;;;;;52.53;27.65;;;;;;;7.05;100.00;101450.09;4994335;28;20087;-48
2022/03/29 04:00:24;;;;;;;52.60;27.48;;;;;;;7.03;100.00;101441.41;4994596;28;20051;-49
2022/03/29 04:02:50;;;;;;;50.75;27.92;;;;;;;7.04;100.00;101449.28;4993279;28;20072;-48
2022/03/29 04:05:16;;;;;;;53.15;29.38;;;;;;;7.09;100.00;101447.09;4998229;28;20029;-50
2022/03/29 04:07:42;;;;;;;56.20;29.45;;;;;;;7.11;100.00;101438.97;4999316;28;20116;-48
2022/03/29 04:10:08;;;;;;;49.38;28.88;;;;;;;7.12;100.00;101443.31;4993471;28;20022;-50
2022/03/29 04:12:34;;;;;;;58.10;29.65;;;;;;;7.09;100.00;101438.25;4992908;28;20202;-50
2022/03/29 04:14:59;;;;;;;59.75;30.30;;;;;;;7.03;100.00;101430.78;5005584;28;20052;-48
2022/03/29 04:17:25;;;;;;;60.70;31.10;;;;;;;7.03;100.00;101425.47;4996300;28;20018;-50
2022/03/29 04:19:50;;;;;;;64.68;31.52;;;;;;;6.98;100.00;101423.19;4999642;28;20041;-52
2022/03/29 04:22:18;;;;;;;59.00;31.05;;;;;;;6.99;100.00;101430.19;5001791;28;20041;-50
2022/03/29 04:24:44;;;;;;;56.47;30.13;;;;;;;7.02;100.00;101423.78;5013654;28;20053;-52
2022/03/29 04:27:09;;;;;;;62.63;31.40;;;;;;;6.98;100.00;101423.19;5012628;28;20029;-48
2022/03/29 04:29:35;;;;;;;58.25;31.30;;;;;;;6.98;100.00;101417.88;4991609;28;20492;-50
2022/03/29 04:32:00;;;;;;;64.05;32.17;;;;;;;6.94;100.00;101420.91;4991088;28;20033;-49
2022/03/29 04:34:25;;;;;;;55.72;30.90;;;;;;;6.94;100.00;101411.09;4994300;28;20065;-52
2022/03/29 04:36:50;;;;;;;61.17;31.45;;;;;;;6.97;100.00;101415.34;5004276;28;21392;-51
2022/03/29 04:39:16;;;;;;;63.75;32.25;;;;;;;7.00;100.00;101412.44;5009921;28;20420;-48
2022/03/29 04:41:41;;;;;;;59.88;31.23;;;;;;;7.04;100.00;101406.78;4993418;28;20032;-51
2022/03/29 04:44:06;;;;;;;66.05;33.13;;;;;;;7.09;100.00;101407.25;4992665;28;20036;-50
2022/03/29 04:46:32;;;;;;;64.70;33.72;;;;;;;7.08;100.00;101400.22;4996451;28;20499;-50
2022/03/29 04:48:57;;;;;;;64.38;32.92;;;;;;;7.08;100.00;101402.88;4997205;28;20341;-52
2022/03/29 04:51:22;;;;;;;68.97;34.08;;;;;;;7.01;100.00;101390.22;4996930;28;20017;-47
2022/03/29 04:53:48;;;;;;;68.20;33.35;;;;;;;6.96;100.00;101395.91;5012355;28;20076;-52
2022/03/29 04:56:14;;;;;;;76.45;35.88;;;;;;;6.92;100.00;101399.78;5012783;28;20424;-50
2022/03/29 04:58:39;;;;;;;71.18;34.08;;;;;;;6.93;100.00;101404.13;5010975;28;20095;-51
2022/03/29 05:01:05;;;;;;;69.93;34.80;;;;;;;6.98;100.00;101401.13;5011018;28;20049;-51
2022/03/29 05:03:34;;;;;;;69.90;34.63;;;;;;;6.96;100.00;101390.63;4997177;28;20133;-48
2022/03/29 05:05:59;;;;;;;72.93;34.80;;;;;;;6.93;100.00;101398.81;5025154;28;20052;-49
2022/03/29 05:08:24;;;;;;;76.32;35.33;;;;;;;6.94;100.00;101392.53;4996248;28;20496;-51
2022/03/29 05:10:49;;;;;;;73.80;34.67;;;;;;;6.91;100.00;101384.84;5003052;28;20049;-51
2022/03/29 05:13:18;;;;;;;70.43;34.60;;;;;;;6.91;100.00;101383.00;4994561;28;20029;-52
2022/03/29 05:15:44;;;;;;;75.80;34.70;;;;;;;6.91;100.00;101369.72;4990468;28;21322;-48
2022/03/29 05:18:09;;;;;;;74.30;34.53;;;;;;;6.91;100.00;101367.06;5005381;28;20032;-51
2022/03/29 05:20:34;;;;;;;76.38;35.47;;;;;;;6.90;100.00;101368.03;4996724;28;20040;-48
2022/03/29 05:23:01;;;;;;;73.03;34.47;;;;;;;6.86;100.00;101369.25;5011745;28;20039;-50
2022/03/29 05:25:26;;;;;;;71.43;35.70;;;;;;;6.81;100.00;101376.75;5013333;28;20096;-51
2022/03/29 05:27:53;;;;;;;79.43;36.13;;;;;;;6.75;100.00;101384.38;5011039;28;20040;-50
2022/03/29 05:30:20;;;;;;;73.85;35.83;;;;;;;6.76;100.00;101370.13;5011291;28;20009;-50
2022/03/29 05:32:46;;;;;;;78.88;35.17;;;;;;;6.86;100.00;101373.75;5011834;28;20032;-49
2022/03/29 05:35:12;;;;;;;75.97;36.08;;;;;;;6.90;100.00;101368.03;4993487;28;20022;-50
2022/03/29 05:37:39;;;;;;;74.15;34.60;;;;;;;6.96;100.00;101372.03;4993749;28;20563;-48
2022/03/29 05:40:09;;;;;;;74.32;34.17;;;;;;;6.93;100.00;101374.91;4993298;28;20487;-47
2022/03/29 05:42:42;;;;;;;70.90;34.70;;;;;;;6.93;100.00;101390.84;4997447;28;20033;-48
2022/03/29 05:45:08;;;;;;;76.70;34.47;;;;;;;6.90;100.00;101377.81;5007962;28;20037;-48
2022/03/29 05:50:18;;;;;;;69.63;33.08;;;;;;;6.91;100.00;101379.53;5013322;28;20044;-50
2022/03/29 05:52:44;;;;;;;71.75;34.00;;;;;;;6.95;100.00;101386.25;5006928;28;20034;-51
2022/03/29 05:55:09;;;;;;;75.32;34.65;;;;;;;6.97;100.00;101375.50;4992798;28;20445;-48
2022/03/29 05:57:35;;;;;;;73.93;34.90;;;;;;;7.02;100.00;101381.28;5002663;28;20476;-51
2022/03/29 06:00:00;;;;;;;60.83;31.50;;;;;;;7.06;100.00;101378.28;5000609;28;20447;-49
2022/03/29 06:02:25;;;;;;;71.75;33.75;;;;;;;7.13;100.00;101373.31;4993510;28;20032;-52
2022/03/29 06:04:51;;;;;;;74.45;33.45;;;;;;;7.21;100.00;101375.31;4990287;28;20362;-48
2022/03/29 06:07:16;;;;;;;69.43;33.15;;;;;;;7.20;100.00;101368.34;4993162;28;20125;-49
2022/03/29 06:09:42;;;;;;;70.65;34.47;;;;;;;7.18;100.00;101370.25;4992483;28;20030;-49
2022/03/29 06:12:07;;;;;;;73.38;34.53;;;;;;;7.23;100.00;101370.72;4996755;28;20030;-47
2022/03/29 06:14:32;;;;;;;81.90;33.83;;;;;;;7.23;100.00;101376.88;4992072;28;20048;-48
2022/03/29 06:17:00;;;;;;;70.50;34.72;;;;;;;7.20;100.00;101378.97;5003489;28;20037;-48
2022/03/29 06:19:25;;;;;;;66.40;33.15;;;;;;;7.19;100.00;101385.22;4995466;28;20079;-52
2022/03/29 06:21:50;;;;;;;65.93;31.90;;;;;;;7.17;100.00;101380.03;4997191;28;20833;-48
2022/03/29 06:24:16;;;;;;;75.35;33.90;;;;;;;7.14;100.00;101385.59;4999907;28;20036;-51
2022/03/29 06:26:41;;;;;;;67.97;32.60;;;;;;;7.16;100.00;101382.81;4993535;28;20026;-49
2022/03/29 06:29:07;;;;;;;71.53;32.25;;;;;;;7.21;100.00;101385.94;5006712;28;20030;-50
2022/03/29 06:31:33;;;;;;;68.25;32.17;;;;;;;7.26;100.00;101376.66;4992205;28;20041;-51
2022/03/29 06:33:58;;;;;;;71.93;32.88;;;;;;;7.31;100.00;101383.38;4992932;28;20022;-51
2022/03/29 06:36:25;;;;;;;73.70;33.47;;;;;;;7.36;100.00;101384.69;4993026;28;20054;-49
2022/03/29 06:38:50;;;;;;;72.63;34.53;;;;;;;7.34;100.00;101391.09;4992900;28;20574;-50
2022/03/29 06:41:15;;;;;;;74.80;33.60;;;;;;;7.28;100.00;101387.97;5006639;28;20037;-50
2022/03/29 06:43:41;;;;;;;69.95;33.38;;;;;;;7.23;100.00;101389.31;5001223;28;20116;-48
2022/03/29 06:46:09;;;;;;;69.68;32.80;;;;;;;7.18;100.00;101384.41;5013686;28;20057;-52
2022/03/29 06:48:35;;;;;;;72.30;33.47;;;;;;;7.16;100.00;101377.50;5015038;28;20073;-48
2022/03/29 06:51:01;;;;;;;68.78;32.13;;;;;;;7.13;100.00;101369.78;5015216;28;20487;-51
2022/03/29 06:53:26;;;;;;;73.88;33.60;;;;;;;7.18;100.00;101381.75;5008987;28;20125;-52
2022/03/29 06:55:51;;;;;;;72.03;33.20;;;;;;;7.26;100.00;101373.13;5012076;28;20100;-48
2022/03/29 06:58:17;;;;;;;75.90;34.38;;;;;;;7.33;100.00;101378.78;5002695;28;20467;-52
2022/03/29 07:00:43;;;;;;;75.78;34.30;;;;;;;7.38;100.00;101373.91;4998589;28;20595;-51
2022/03/29 07:03:09;;;;;;;76.78;34.30;;;;;;;7.45;100.00;101377.75;4997749;28;20029;-49
2022/03/29 07:05:38;;;;;;;77.65;33.97;;;;;;;7.44;100.00;101371.59;5011200;28;20033;-48
2022/03/29 07:08:10;;;;;;;77.85;34.75;;;;;;;7.44;100.00;101378.75;5013891;28;20040;-50
2022/03/29 07:13:21;;;;;;;89.10;35.45;;;;;;;7.36;100.00;101374.03;4994950;28;20041;-47
2022/03/29 07:15:48;;;;;;;81.68;34.60;;;;;;;7.35;100.00;101371.50;5013353;28;20025;-48
2022/03/29 07:18:14;;;;;;;81.82;35.00;;;;;;;7.28;100.00;101380.00;5002726;28;20583;-50
2022/03/29 07:20:39;;;;;;;89.35;35.10;;;;;;;7.24;100.00;101369.75;4996869;28;20110;-50
2022/03/29 07:23:04;;;;;;;78.80;33.95;;;;;;;7.25;100.00;101382.91;4992630;28;20069;-49
2022/03/29 07:25:32;;;;;;;86.65;35.35;;;;;;;7.31;100.00;101381.56;5018531;28;20062;-50
2022/03/29 07:27:57;;;;;;;83.47;35.22;;;;;;;7.35;100.00;101379.47;5007129;28;20059;-48
2022/03/29 07:30:23;;;;;;;83.78;34.10;;;;;;;7.44;100.00;101382.22;5000880;28;20017;-51
2022/03/29 07:32:53;;;;;;;77.03;34.45;;;;;;;7.52;100.00;101391.38;5009998;28;20036;-48
2022/03/29 07:35:21;;;;;;;82.97;36.05;;;;;;;7.54;100.00;101386.78;5015151;28;20158;-49
2022/03/29 07:37:47;;;;;;;88.13;35.53;;;;;;;7.51;100.00;101379.91;5014997;28;20137;-50
2022/03/29 07:40:16;;;;;;;88.13;36.20;;;;;;;7.56;100.00;101384.84;5013786;28;20133;-47
2022/03/29 07:42:42;;;;;;;94.50;36.67;;;;;;;7.54;100.00;101390.28;5014937;28;20033;-50
2022/03/29 07:45:11;;;;;;;90.57;36.13;;;;;;;7.59;100.00;101393.41;5009461;28;20029;-48
2022/03/29 07:47:37;;;;;;;81.40;34.63;;;;;;;7.68;100.00;101393.63;5013927;28;20032;-47
2022/03/29 07:50:06;;;;;;;89.63;35.05;;;;;;;7.66;100.00;101393.75;5013435;28;20672;-48
2022/03/29 07:52:33;;;;;;;93.10;36.65;;;;;;;7.71;100.00;101396.84;5012773;28;20037;-49
2022/03/29 07:54:58;;;;;;;104.45;37.70;;;;;;;7.74;100.00;101388.63;4993169;28;20021;-51
2022/03/29 07:57:25;;;;;;;110.13;41.03;;;;;;;7.76;100.00;101385.84;4997031;28;20030;-50
2022/03/29 07:59:50;;;;;;;95.40;37.78;;;;;;;7.84;100.00;101383.34;5002380;28;20473;-48
2022/03/29 08:02:16;;;;;;;93.80;37.72;;;;;;;7.95;100.00;101377.97;5008635;28;20070;-49
2022/03/29 08:04:41;;;;;;;104.13;38.88;;;;;;;7.99;100.00;101383.88;5027034;28;20074;-49
2022/03/29 08:07:08;;;;;;;84.88;34.08;;;;;;;7.99;100.00;101375.88;5013771;28;20465;-51
2022/03/29 08:09:34;;;;;;;92.38;35.83;;;;;;;8.02;100.00;101381.78;5027269;28;20045;-52
2022/03/29 08:11:59;;;;;;;96.00;36.90;;;;;;;8.08;100.00;101384.91;5013835;28;20547;-49
2022/03/29 08:14:25;;;;;;;87.13;35.92;;;;;;;8.06;100.00;101382.38;5013661;28;20128;-50
2022/03/29 08:16:53;;;;;;;101.50;37.33;;;;;;;8.03;100.00;101382.66;4995704;28;20099;-49
2022/03/29 08:19:18;;;;;;;77.90;34.55;;;;;;;8.02;100.00;101381.78;5010979;28;20025;-50
2022/03/29 08:21:49;;;;;;;83.78;35.80;;;;;;;8.05;100.00;101386.00;5015875;28;20037;-50
2022/03/29 08:24:24;;;;;;;83.70;34.00;;;;;;;8.08;100.00;101385.75;5009631;28;20042;-51
2022/03/29 08:26:52;;;;;;;79.47;33.72;;;;;;;8.11;100.00;101381.97;5001908;28;20038;-52
2022/03/29 08:29:21;;;;;;;71.75;32.88;;;;;;;8.14;100.00;101379.88;5004442;28;20169;-51
2022/03/29 08:31:47;;;;;;;73.95;33.40;;;;;;;8.20;100.00;101379.38;5003544;28;20550;-52
2022/03/29 08:34:13;;;;;;;65.50;32.00;;;;;;;8.25;100.00;101380.78;5011412;28;20679;-51
2022/03/29 08:36:39;;;;;;;67.90;33.40;;;;;;;8.29;100.00;101382.22;5001034;28;20330;-47
2022/03/29 08:39:06;;;;;;;67.63;32.15;;;;;;;8.28;100.00;101373.41;5009898;28;20029;-48
2022/03/29 08:41:42;;;;;;;70.85;33.03;;;;;;;8.29;100.00;101377.72;5013865;28;20037;-50
2022/03/29 08:44:08;;;;;;;66.10;31.58;;;;;;;8.24;100.00;101377.28;5012321;28;20325;-48
2022/03/29 08:46:38;;;;;;;73.53;33.55;;;;;;;8.21;100.00;101380.22;5006972;28;20411;-49
2022/03/29 08:49:05;;;;;;;69.43;32.83;;;;;;;8.22;100.00;101384.56;5009154;28;20038;-49
2022/03/29 08:51:31;;;;;;;69.63;32.85;;;;;;;8.19;100.00;101382.16;4994959;28;20032;-47
2022/03/29 08:53:56;;;;;;;67.45;33.53;;;;;;;8.19;100.00;101380.34;5013098;28;20033;-52
2022/03/29 08:56:22;;;;;;;67.25;32.80;;;;;;;8.19;100.00;101385.66;5009547;28;20029;-50
2022/03/29 08:58:48;;;;;;;71.00;31.50;;;;;;;8.23;100.00;101378.25;5011961;28;20480;-46
2022/03/29 09:01:13;;;;;;;70.30;32.47;;;;;;;8.28;100.00;101372.53;5010584;28;20029;-47
2022/03/29 09:03:38;;;;;;;67.97;32.08;;;;;;;8.28;100.00;101368.09;4997206;28;20562;-47
2022/03/29 09:06:08;;;;;;;64.22;31.30;;;;;;;8.30;100.00;101365.25;4994173;28;20269;-47
2022/03/29 09:08:54;;;;;;;66.43;31.60;;;;;;;8.44;100.00;101377.41;5008197;28;20507;-48
2022/03/29 09:11:20;;;;;;;69.15;32.40;;;;;;;8.48;100.00;101370.84;5004683;28;20504;-49
2022/03/29 09:13:46;;;;;;;64.78;32.35;;;;;;;8.54;100.00;101373.81;5027163;28;20583;-47
2022/03/29 09:16:32;;;;;;;69.40;32.95;;;;;;;8.62;100.00;101370.44;5012422;28;20155;-48
2022/03/29 09:18:58;;;;;;;67.22;31.60;;;;;;;8.59;100.00;101368.91;5012848;28;20390;-48
2022/03/29 09:21:24;;;;;;;64.25;32.00;;;;;;;8.63;100.00;101377.47;5012277;28;20013;-49
2022/03/29 09:24:23;;;;;;;68.93;33.00;;;;;;;8.71;100.00;101374.16;5012465;28;20026;-51
2022/03/29 09:26:52;;;;;;;65.35;30.08;;;;;;;8.72;100.00;101378.47;4994498;28;20053;-49
2022/03/29 09:29:22;;;;;;;65.05;31.67;;;;;;;8.72;100.00;101376.69;5001193;28;20363;-48
2022/03/29 09:32:06;;;;;;;64.20;30.00;;;;;;;8.71;100.00;101374.16;5006096;28;20166;-50
2022/03/29 09:34:32;;;;;;;63.20;30.08;;;;;;;8.69;100.00;101376.09;5010392;28;20488;-51
2022/03/29 09:36:57;;;;;;;62.10;30.00;;;;;;;8.74;100.00;101377.38;5010652;28;20212;-50
2022/03/29 09:39:29;;;;;;;60.50;29.48;;;;;;;8.81;100.00;101372.34;4993200;28;20309;-49
2022/03/29 09:42:00;;;;;;;58.30;29.90;;;;;;;8.81;100.00;101375.03;4993723;28;20030;-48
2022/03/29 09:44:43;;;;;;;60.55;30.92;;;;;;;8.85;100.00;101375.59;5007252;28;20017;-50
2022/03/29 09:47:12;;;;;;;63.00;29.90;;;;;;;8.89;100.00;101358.34;4993463;28;20109;-50
2022/03/29 09:50:02;;;;;;;61.92;30.63;;;;;;;8.94;100.00;101366.75;4998163;28;20601;-45
2022/03/29 09:52:30;;;;;;;55.60;28.77;;;;;;;8.94;100.00;101354.31;4994660;28;20473;-54
2022/03/29 09:55:15;;;;;;;60.63;30.48;;;;;;;9.05;100.00;101352.50;5000979;28;20022;-45
2022/03/29 09:57:55;;;;;;;58.10;28.95;;;;;;;9.09;100.00;101351.22;5003057;28;20025;-49
2022/03/29 10:00:29;;;;;;;64.15;28.70;;;;;;;9.08;100.00;101349.53;5007065;28;20018;-48
2022/03/29 10:02:55;;;;;;;58.95;28.70;;;;;;;9.06;100.00;101349.69;5004673;28;20044;-44
2022/03/29 10:05:23;;;;;;;58.92;28.83;;;;;;;9.08;100.00;101337.06;5000460;28;20465;-49
2022/03/29 10:11:06;;;;;;;54.80;28.00;;;;;;;9.20;100.00;101335.09;4996548;28;20048;-44
2022/03/29 10:13:31;;;;;;;57.75;28.65;;;;;;;9.26;100.00;101323.88;4995475;28;20091;-43
2022/03/29 10:15:56;;;;;;;56.78;28.20;;;;;;;9.42;100.00;101317.97;4992900;28;20022;-47
2022/03/29 10:18:25;;;;;;;57.22;28.05;;;;;;;9.45;100.00;101323.03;4994014;28;20063;-45
2022/03/29 10:20:52;;;;;;;61.75;29.27;;;;;;;9.52;100.00;101324.13;4997711;28;20203;-46
2022/03/29 10:23:21;;;;;;;61.70;29.98;;;;;;;9.56;100.00;101321.19;4995867;28;20037;-44
2022/03/29 10:25:47;;;;;;;51.83;26.90;;;;;;;9.57;100.00;101326.34;5011607;28;20338;-45
2022/03/29 10:28:13;;;;;;;54.95;28.50;;;;;;;9.55;100.00;101325.66;4995222;28;20105;-44
2022/03/29 10:30:41;;;;;;;57.78;28.80;;;;;;;9.53;100.00;101324.97;4996110;28;20017;-46
2022/03/29 10:33:19;;;;;;;56.45;29.27;;;;;;;9.45;100.00;101330.16;5003194;28;20540;-45
2022/03/29 10:36:12;;;;;;;53.80;28.17;;;;;;;9.44;100.00;101326.66;5003073;28;20139;-49
2022/03/29 10:38:46;;;;;;;59.83;28.83;;;;;;;9.50;100.00;101323.44;5003459;28;20029;-51
2022/03/29 10:41:27;;;;;;;59.03;29.27;;;;;;;9.64;100.00;101327.50;5009910;28;20100;-47
2022/03/29 10:44:08;;;;;;;55.72;27.58;;;;;;;9.77;100.00;101321.84;4998142;28;20140;-47
2022/03/29 10:46:37;;;;;;;53.40;28.40;;;;;;;9.93;100.00;101315.06;5010034;28;20155;-47
2022/03/29 10:49:20;;;;;;;52.95;28.67;;;;;;;10.19;100.00;101309.91;5016119;28;20033;-47
2022/03/29 10:51:47;;;;;;;56.13;27.85;;;;;;;10.39;99.86;101316.03;5016730;28;20196;-49
2022/03/29 10:54:26;;;;;;;52.33;27.50;;;;;;;10.35;98.97;101318.16;5015877;28;20040;-49
2022/03/29 10:57:14;;;;;;;52.70;27.48;;;;;;;10.40;99.24;101315.91;5016206;28;20380;-48
2022/03/29 10:59:39;;;;;;;56.30;28.48;;;;;;;10.49;97.56;101314.16;5024849;28;20053;-50
2022/03/29 11:02:32;;;;;;;58.30;29.73;;;;;;;10.71;98.80;101312.03;4994272;28;20034;-47
2022/03/29 11:05:09;;;;;;;58.45;29.08;;;;;;;10.75;95.46;101300.06;5013306;28;20334;-47
2022/03/29 11:07:47;;;;;;;48.20;26.55;;;;;;;10.78;95.76;101297.94;5007355;28;20121;-48
2022/03/29 11:10:19;;;;;;;53.70;27.10;;;;;;;10.77;96.42;101282.88;5000515;28;20067;-47
2022/03/29 11:12:52;;;;;;;54.83;28.20;;;;;;;10.74;95.92;101277.88;5009928;28;20041;-51
2022/03/29 11:15:38;;;;;;;53.50;28.33;;;;;;;10.89;96.59;101286.19;4994413;28;20377;-51
2022/03/29 11:18:29;;;;;;;52.00;27.90;;;;;;;10.76;95.56;101280.38;5003333;28;20436;-51
2022/03/29 11:21:02;;;;;;;53.63;27.20;;;;;;;10.83;94.10;101284.13;4997833;28;20025;-52
2022/03/29 11:23:33;;;;;;;48.55;27.02;;;;;;;11.19;93.53;101276.09;5008008;28;20044;-50